createdAt,value
2017-12-17T00:00:16.234Z,6.55
2017-12-17T00:02:45.088Z,6.97
2017-12-17T00:05:13.922Z,7.68
2017-12-17T00:07:44.995Z,5.95
2017-12-17T00:10:13.852Z,7.50
2017-12-17T00:12:42.360Z,8.02
2017-12-17T00:15:11.192Z,6.90
2017-12-17T00:17:39.825Z,8.02
2017-12-17T00:20:08.311Z,6.72
2017-12-17T00:22:36.388Z,7.82
2017-12-17T00:25:04.441Z,6.22
2017-12-17T00:27:32.870Z,6.85
2017-12-17T00:30:02.192Z,6.18
2017-12-17T00:32:30.925Z,6.00
2017-12-17T00:34:59.854Z,6.22
2017-12-17T00:37:28.561Z,4.90
2017-12-17T00:39:58.035Z,5.05
2017-12-17T00:42:26.774Z,5.78
2017-12-17T00:44:55.480Z,6.57
2017-12-17T00:47:24.217Z,7.75
2017-12-17T00:49:52.920Z,6.68
2017-12-17T00:52:21.845Z,5.40
2017-12-17T00:54:50.901Z,6.22
2017-12-17T00:57:21.689Z,5.55
2017-12-17T00:59:52.469Z,4.70
2017-12-17T01:02:21.300Z,3.78
2017-12-17T01:04:50.110Z,3.95
2017-12-17T01:07:19.037Z,3.30
2017-12-17T01:09:47.923Z,4.55
2017-12-17T01:12:16.866Z,4.97
2017-12-17T01:14:45.622Z,4.32
2017-12-17T01:17:14.454Z,3.83
2017-12-17T01:19:43.364Z,3.78
2017-12-17T01:22:12.147Z,7.03
2017-12-17T01:24:40.874Z,7.60
2017-12-17T01:27:09.591Z,7.35
2017-12-17T01:29:37.979Z,7.65
2017-12-17T01:32:07.487Z,6.93
2017-12-17T01:34:36.129Z,7.00
2017-12-17T01:37:04.904Z,6.32
2017-12-17T01:39:33.272Z,6.87
2017-12-17T01:42:50.342Z,8.65
2017-12-17T01:45:19.182Z,8.43
2017-12-17T01:47:48.421Z,8.20
2017-12-17T01:50:16.692Z,8.45
2017-12-17T01:52:45.179Z,6.75
2017-12-17T01:55:13.255Z,6.87
2017-12-17T01:57:42.634Z,5.62
2017-12-17T02:00:11.914Z,5.28
2017-12-17T02:02:40.461Z,5.95
2017-12-17T02:05:09.201Z,6.03
2017-12-17T02:07:37.619Z,5.37
2017-12-17T02:10:07.322Z,5.20
2017-12-17T02:12:35.407Z,6.62
2017-12-17T02:15:04.742Z,4.90
2017-12-17T02:17:32.806Z,5.35
2017-12-17T02:20:00.878Z,5.75
2017-12-17T02:22:28.922Z,6.05
2017-12-17T02:24:56.982Z,5.30
2017-12-17T02:27:25.057Z,5.43
2017-12-17T02:29:53.905Z,5.32
2017-12-17T02:32:22.071Z,5.00
2017-12-17T02:34:50.199Z,5.03
2017-12-17T02:37:19.033Z,5.47
2017-12-17T02:39:47.142Z,5.00
2017-12-17T02:42:15.236Z,4.93
2017-12-17T02:44:44.029Z,4.30
2017-12-17T02:47:12.898Z,4.25
2017-12-17T02:49:41.205Z,5.12
2017-12-17T02:52:09.304Z,6.12
2017-12-17T02:54:37.434Z,4.82
2017-12-17T02:57:05.518Z,4.60
2017-12-17T02:59:33.614Z,4.37
2017-12-17T03:02:01.711Z,3.62
2017-12-17T03:04:29.747Z,3.70
2017-12-17T03:06:57.592Z,3.30
2017-12-17T03:09:26.454Z,3.22
2017-12-17T03:11:54.497Z,3.10
2017-12-17T03:14:22.541Z,3.37
2017-12-17T03:16:50.602Z,2.85
2017-12-17T03:19:19.485Z,2.05
2017-12-17T03:21:48.500Z,3.20
2017-12-17T03:24:17.349Z,2.22
2017-12-17T03:26:45.418Z,2.90
2017-12-17T03:29:13.661Z,3.17
2017-12-17T03:31:41.730Z,2.70
2017-12-17T03:34:09.870Z,4.10
2017-12-17T03:36:38.995Z,2.47
2017-12-17T03:39:07.059Z,2.50
2017-12-17T03:41:35.156Z,2.42
2017-12-17T03:44:03.267Z,3.35
2017-12-17T03:46:31.366Z,3.28
2017-12-17T03:49:00.278Z,2.67
2017-12-17T03:51:28.360Z,2.90
2017-12-17T03:53:56.458Z,2.70
2017-12-17T03:56:24.605Z,3.15
2017-12-17T03:58:52.747Z,2.80
2017-12-17T04:01:21.831Z,2.37
2017-12-17T04:03:50.951Z,3.22
2017-12-17T04:06:19.830Z,2.72
2017-12-17T04:08:48.866Z,2.60
2017-12-17T04:11:16.975Z,2.03
2017-12-17T04:13:45.106Z,2.53
2017-12-17T04:16:13.255Z,2.55
2017-12-17T04:18:41.689Z,3.50
2017-12-17T04:21:09.815Z,4.15
2017-12-17T04:23:38.216Z,2.95
2017-12-17T04:26:06.702Z,2.87
2017-12-17T04:28:34.837Z,3.10
2017-12-17T04:31:03.303Z,3.20
2017-12-17T04:33:31.490Z,3.40
2017-12-17T04:35:59.926Z,2.85
2017-12-17T04:38:28.046Z,2.67
2017-12-17T04:40:56.941Z,3.40
2017-12-17T04:43:25.114Z,2.85
2017-12-17T04:45:54.378Z,2.80
2017-12-17T04:48:22.497Z,2.17
2017-12-17T04:50:51.562Z,2.60
2017-12-17T04:53:20.054Z,3.00
2017-12-17T04:55:48.198Z,3.33
2017-12-17T04:58:16.320Z,2.97
2017-12-17T05:00:45.895Z,3.60
2017-12-17T05:03:14.570Z,3.22
2017-12-17T05:05:43.089Z,2.97
2017-12-17T05:08:11.234Z,3.12
2017-12-17T05:10:40.028Z,3.40
2017-12-17T05:13:08.487Z,3.90
2017-12-17T05:15:37.007Z,3.80
2017-12-17T05:18:05.451Z,3.42
2017-12-17T05:20:33.544Z,2.62
2017-12-17T05:23:02.006Z,3.33
2017-12-17T05:25:30.103Z,3.15
2017-12-17T05:27:58.204Z,3.00
2017-12-17T05:30:26.331Z,2.35
2017-12-17T05:32:54.460Z,2.70
2017-12-17T05:35:23.329Z,3.47
2017-12-17T05:37:52.805Z,2.97
2017-12-17T05:40:21.096Z,3.40
2017-12-17T05:42:49.250Z,3.33
2017-12-17T05:45:17.408Z,3.00
2017-12-17T05:47:45.551Z,3.10
2017-12-17T05:50:14.730Z,2.47
2017-12-17T05:52:43.424Z,3.20
2017-12-17T05:55:12.029Z,2.53
2017-12-17T05:57:40.840Z,3.00
2017-12-17T06:00:09.006Z,2.92
2017-12-17T06:02:37.082Z,3.85
2017-12-17T06:05:05.519Z,2.72
2017-12-17T06:07:33.975Z,3.67
2017-12-17T06:10:02.250Z,3.22
2017-12-17T06:12:31.177Z,2.17
2017-12-17T06:14:59.268Z,2.70
2017-12-17T06:17:28.151Z,2.85
2017-12-17T06:19:57.367Z,3.03
2017-12-17T06:22:25.781Z,2.70
2017-12-17T06:24:54.229Z,2.53
2017-12-17T06:27:23.483Z,2.30
2017-12-17T06:29:51.642Z,2.60
2017-12-17T06:32:19.771Z,2.03
2017-12-17T06:34:47.891Z,2.25
2017-12-17T06:37:15.996Z,2.30
2017-12-17T06:39:44.278Z,2.28
2017-12-17T06:42:12.413Z,2.10
2017-12-17T06:44:40.862Z,2.22
2017-12-17T06:47:10.016Z,1.95
2017-12-17T06:49:38.179Z,2.35
2017-12-17T06:52:06.679Z,2.62
2017-12-17T06:54:34.778Z,2.87
2017-12-17T06:57:03.993Z,3.22
2017-12-17T06:59:33.036Z,3.47
2017-12-17T07:02:01.110Z,2.65
2017-12-17T07:04:29.595Z,2.30
2017-12-17T07:06:58.051Z,2.45
2017-12-17T07:09:26.475Z,3.17
2017-12-17T07:11:54.649Z,2.83
2017-12-17T07:14:22.748Z,2.45
2017-12-17T07:16:50.854Z,2.70
2017-12-17T07:19:19.017Z,2.78
2017-12-17T07:21:47.496Z,3.20
2017-12-17T07:24:16.299Z,2.60
2017-12-17T07:26:44.483Z,2.33
2017-12-17T07:29:13.457Z,2.90
2017-12-17T07:31:41.578Z,2.85
2017-12-17T07:34:09.779Z,2.75
2017-12-17T07:36:38.643Z,3.33
2017-12-17T07:39:07.100Z,2.30
2017-12-17T07:41:35.274Z,3.08
2017-12-17T07:44:03.406Z,1.70
2017-12-17T07:46:31.858Z,2.42
2017-12-17T07:49:00.328Z,2.00
2017-12-17T07:51:28.403Z,2.40
2017-12-17T07:53:56.813Z,2.85
2017-12-17T07:56:25.062Z,2.00
2017-12-17T07:58:53.493Z,1.92
2017-12-17T08:01:21.983Z,2.78
2017-12-17T08:03:50.651Z,3.10
2017-12-17T08:06:20.173Z,2.58
2017-12-17T08:08:48.649Z,2.92
2017-12-17T08:11:17.451Z,1.92
2017-12-17T08:13:45.921Z,2.70
2017-12-17T08:16:14.035Z,2.60
2017-12-17T08:18:43.282Z,2.00
2017-12-17T08:21:12.182Z,3.10
2017-12-17T08:23:41.010Z,5.50
2017-12-17T08:26:09.138Z,4.82
2017-12-17T08:28:37.942Z,25.27
2017-12-17T08:31:06.489Z,65.70
2017-12-17T08:33:35.951Z,91.82
2017-12-17T08:36:04.402Z,8.48
2017-12-17T08:41:07.399Z,2.27
2017-12-17T09:15:00.910Z,2.67
2017-12-17T09:17:29.425Z,2.97
2017-12-17T09:19:58.513Z,3.80
2017-12-17T09:22:27.641Z,2.33
2017-12-17T09:24:55.850Z,2.73
2017-12-17T09:29:58.268Z,2.70
2017-12-17T09:32:26.594Z,2.40
2017-12-17T09:34:55.103Z,2.60
2017-12-17T09:37:25.318Z,2.70
2017-12-17T09:39:53.577Z,3.20
2017-12-17T09:42:21.961Z,2.57
2017-12-17T09:44:50.841Z,2.63
2017-12-17T09:47:19.221Z,2.60
2017-12-17T09:49:46.957Z,2.70
2017-12-17T09:52:14.951Z,2.70
2017-12-17T09:54:43.785Z,2.50
2017-12-17T09:57:11.841Z,2.73
2017-12-17T09:59:39.555Z,2.67
2017-12-17T10:02:07.271Z,2.97
2017-12-17T10:04:35.339Z,2.50
2017-12-17T10:07:03.049Z,2.53
2017-12-17T10:09:31.312Z,2.40
2017-12-17T10:11:59.342Z,2.43
2017-12-17T10:14:27.388Z,2.53
2017-12-17T10:16:55.869Z,2.67
2017-12-17T10:19:24.366Z,3.20
2017-12-17T10:21:53.371Z,3.10
2017-12-17T10:24:21.437Z,2.67
2017-12-17T10:26:49.470Z,2.00
2017-12-17T10:29:18.157Z,2.00
2017-12-17T10:31:47.528Z,1.90
2017-12-17T10:34:15.713Z,2.43
2017-12-17T10:36:43.854Z,2.10
2017-12-17T10:39:11.609Z,2.03
2017-12-17T10:41:40.036Z,1.70
2017-12-17T10:44:07.756Z,1.80
2017-12-17T10:46:36.573Z,1.60
2017-12-17T10:49:04.637Z,1.60
2017-12-17T10:51:32.680Z,1.60
2017-12-17T10:54:01.235Z,1.50
2017-12-17T10:56:28.986Z,1.70
2017-12-17T10:58:56.761Z,2.30
2017-12-17T11:01:25.212Z,1.80
2017-12-17T11:03:53.281Z,1.90
2017-12-17T11:06:22.307Z,2.10
2017-12-17T11:08:50.577Z,1.93
2017-12-17T11:11:20.583Z,2.07
2017-12-17T11:13:49.479Z,2.33
2017-12-17T11:16:17.613Z,1.60
2017-12-17T11:18:46.815Z,1.57
2017-12-17T11:21:14.556Z,2.27
2017-12-17T11:23:43.461Z,1.77
2017-12-17T11:26:12.608Z,1.83
2017-12-17T11:28:40.325Z,1.37
2017-12-17T11:31:08.902Z,1.70
2017-12-17T11:33:37.476Z,1.37
2017-12-17T11:36:05.513Z,2.30
2017-12-17T11:38:33.549Z,1.60
2017-12-17T11:41:01.358Z,1.90
2017-12-17T11:43:29.430Z,1.30
2017-12-17T11:45:57.507Z,2.03
2017-12-17T11:48:25.250Z,1.77
2017-12-17T11:50:52.959Z,1.67
2017-12-17T11:53:20.678Z,2.13
2017-12-17T11:55:48.397Z,1.73
2017-12-17T11:58:16.884Z,2.10
2017-12-17T12:00:45.416Z,2.00
2017-12-17T12:03:13.558Z,2.07
2017-12-17T12:05:41.302Z,2.00
2017-12-17T12:08:09.765Z,2.00
2017-12-17T12:10:37.525Z,2.60
2017-12-17T12:13:05.570Z,2.20
2017-12-17T12:15:33.601Z,2.10
2017-12-17T12:18:02.092Z,2.20
2017-12-17T12:20:30.561Z,2.20
2017-12-17T12:22:58.280Z,1.90
2017-12-17T12:25:26.197Z,2.57
2017-12-17T12:27:54.683Z,2.60
2017-12-17T12:30:23.546Z,2.40
2017-12-17T12:32:52.545Z,2.00
2017-12-17T12:35:20.579Z,2.40
2017-12-17T12:37:48.390Z,2.30
2017-12-17T12:40:17.179Z,2.43
2017-12-17T12:42:44.981Z,2.53
2017-12-17T12:45:13.009Z,2.60
2017-12-17T12:47:41.468Z,1.45
2017-12-17T12:50:09.613Z,2.63
2017-12-17T12:52:38.548Z,2.65
2017-12-17T12:55:06.651Z,2.05
2017-12-17T12:57:34.703Z,1.90
2017-12-17T13:00:02.781Z,2.20
2017-12-17T13:02:30.827Z,3.10
2017-12-17T13:04:59.028Z,3.60
2017-12-17T13:07:27.042Z,3.95
2017-12-17T13:09:55.971Z,4.00
2017-12-17T13:12:24.284Z,3.85
2017-12-17T13:14:52.256Z,4.10
2017-12-17T13:17:20.585Z,3.85
2017-12-17T13:19:49.954Z,3.80
2017-12-17T13:22:18.265Z,3.80
2017-12-17T13:24:47.993Z,4.70
2017-12-17T13:27:16.041Z,4.47
2017-12-17T13:29:45.109Z,4.00
2017-12-17T13:32:13.232Z,4.05
2017-12-17T13:34:41.465Z,3.80
2017-12-17T13:37:10.394Z,3.80
2017-12-17T13:39:39.508Z,4.00
2017-12-17T13:42:08.106Z,10.23
2017-12-17T13:44:36.139Z,7.40
2017-12-17T13:47:04.245Z,7.47
2017-12-17T13:49:32.470Z,6.85
2017-12-17T13:52:01.608Z,8.35
2017-12-17T13:54:31.071Z,11.25
2017-12-17T13:56:59.347Z,8.10
2017-12-17T13:59:28.753Z,7.65
2017-12-17T14:01:57.009Z,9.57
2017-12-17T14:04:25.311Z,8.73
2017-12-17T14:06:54.165Z,7.30
2017-12-17T14:09:22.196Z,6.00
2017-12-17T14:11:51.257Z,8.63
2017-12-17T14:14:19.519Z,6.37
2017-12-17T14:16:48.160Z,8.73
2017-12-17T14:19:16.447Z,6.97
2017-12-17T14:21:45.349Z,6.90
2017-12-17T14:24:13.698Z,3.78
2017-12-17T14:26:42.710Z,4.05
2017-12-17T14:29:10.957Z,4.55
2017-12-17T14:31:39.257Z,3.30
2017-12-17T14:34:07.257Z,7.50
2017-12-17T14:36:35.257Z,5.60
2017-12-17T14:39:06.392Z,6.00
2017-12-17T14:41:39.125Z,6.70
2017-12-17T14:44:07.857Z,6.05
2017-12-17T14:46:35.902Z,6.55
2017-12-17T14:49:03.927Z,8.90
2017-12-17T14:51:32.696Z,10.15
2017-12-17T14:54:00.705Z,12.93
2017-12-17T14:56:29.449Z,14.25
2017-12-17T14:58:57.478Z,13.30
2017-12-17T15:01:25.472Z,10.93
2017-12-17T15:03:53.469Z,10.60
2017-12-17T15:06:21.480Z,9.23
2017-12-17T15:08:50.232Z,11.32
2017-12-17T15:11:18.240Z,12.48
2017-12-17T15:13:47.000Z,13.98
2017-12-17T15:16:15.057Z,12.07
2017-12-17T15:18:43.086Z,13.38
2017-12-17T15:21:11.124Z,15.57
2017-12-17T15:23:39.124Z,12.00
2017-12-17T15:26:07.124Z,14.07
2017-12-17T15:28:35.129Z,12.18
2017-12-17T15:31:03.162Z,12.05
2017-12-17T15:33:31.165Z,10.65
2017-12-17T15:35:59.163Z,9.63
2017-12-17T15:38:28.586Z,9.95
2017-12-17T15:40:57.387Z,13.07
2017-12-17T15:43:26.086Z,14.05
2017-12-17T15:45:54.900Z,15.60
2017-12-17T15:48:25.267Z,16.70
2017-12-17T15:50:53.613Z,37.53
2017-12-17T15:53:21.645Z,56.60
2017-12-17T15:55:49.898Z,34.55
2017-12-17T15:58:18.640Z,24.60
2017-12-17T16:00:46.673Z,20.77
2017-12-17T16:03:15.288Z,17.95
2017-12-17T16:05:44.060Z,15.48
2017-12-17T16:08:12.198Z,16.27
2017-12-17T16:10:41.324Z,21.40
2017-12-17T16:13:10.498Z,24.02
2017-12-17T16:15:38.538Z,22.25
2017-12-17T16:18:06.910Z,20.70
2017-12-17T16:20:35.633Z,18.55
2017-12-17T16:23:04.422Z,21.10
2017-12-17T16:25:33.164Z,17.37
2017-12-17T16:28:01.898Z,17.52
2017-12-17T16:30:30.076Z,18.52
2017-12-17T16:32:58.870Z,12.95
2017-12-17T16:35:27.627Z,10.20
2017-12-17T16:37:56.330Z,11.20
2017-12-17T16:40:25.856Z,9.70
2017-12-17T16:42:54.578Z,11.73
2017-12-17T16:45:23.257Z,11.73
2017-12-17T16:47:51.957Z,10.63
2017-12-17T16:50:20.638Z,10.07
2017-12-17T16:52:49.298Z,9.65
2017-12-17T16:55:17.999Z,10.85
2017-12-17T16:57:46.982Z,12.40
2017-12-17T17:00:18.625Z,12.45
2017-12-17T17:02:47.360Z,10.80
2017-12-17T17:05:16.053Z,8.55
2017-12-17T17:07:44.796Z,8.23
2017-12-17T17:10:13.541Z,9.48
2017-12-17T17:12:42.243Z,8.60
2017-12-17T17:15:10.953Z,7.62
2017-12-17T17:17:40.492Z,7.22
2017-12-17T17:20:08.999Z,5.85
2017-12-17T17:22:38.350Z,5.00
2017-12-17T17:25:06.722Z,6.15
2017-12-17T17:27:36.294Z,6.35
2017-12-17T17:30:04.896Z,7.45
2017-12-17T17:32:33.582Z,8.02
2017-12-17T17:35:02.363Z,10.43
2017-12-17T17:37:32.477Z,8.65
2017-12-17T17:40:02.006Z,5.47
2017-12-17T17:42:30.810Z,6.47
2017-12-17T17:45:00.733Z,4.68
2017-12-17T17:47:30.176Z,3.97
2017-12-17T17:49:58.238Z,4.00
2017-12-17T17:52:28.397Z,5.97
2017-12-17T17:54:57.293Z,5.50
2017-12-17T17:57:25.974Z,6.20
2017-12-17T17:59:54.661Z,7.30
2017-12-17T18:02:23.041Z,4.72
2017-12-17T18:04:53.875Z,6.28
2017-12-17T18:07:22.614Z,5.53
2017-12-17T18:09:51.345Z,5.80
2017-12-17T18:12:20.030Z,6.30
2017-12-17T18:14:48.713Z,6.93
2017-12-17T18:17:17.427Z,6.62
2017-12-17T18:19:46.161Z,8.25
2017-12-17T18:22:15.032Z,6.25
2017-12-17T18:24:44.001Z,7.75
2017-12-17T18:27:13.546Z,7.68
2017-12-17T18:29:42.219Z,8.27
2017-12-17T18:32:11.718Z,7.97
2017-12-17T18:34:41.378Z,8.38
2017-12-17T18:37:10.079Z,7.60
2017-12-17T18:39:39.818Z,7.72
2017-12-17T18:42:09.275Z,7.05
2017-12-17T18:44:37.988Z,6.87
2017-12-17T18:47:06.748Z,5.93
2017-12-17T18:49:35.435Z,5.05
2017-12-17T18:52:04.133Z,4.75
2017-12-17T18:54:32.845Z,5.03
2017-12-17T18:57:01.566Z,4.50
2017-12-17T18:59:30.374Z,5.37
2017-12-17T19:01:59.069Z,4.10
2017-12-17T19:04:27.737Z,4.45
2017-12-17T19:06:56.452Z,4.20
2017-12-17T19:09:25.200Z,4.85
2017-12-17T19:11:54.653Z,4.05
2017-12-17T19:14:23.506Z,4.47
2017-12-17T19:16:52.252Z,5.87
2017-12-17T19:19:20.958Z,5.35
2017-12-17T19:21:49.725Z,6.37
2017-12-17T19:24:18.416Z,6.18
2017-12-17T19:26:48.628Z,6.00
2017-12-17T19:29:17.373Z,6.10
2017-12-17T19:31:46.080Z,5.85
2017-12-17T19:34:14.820Z,5.30
2017-12-17T19:36:43.552Z,7.43
2017-12-17T19:39:12.296Z,15.75
2017-12-17T19:41:43.328Z,21.23
2017-12-17T19:44:12.049Z,17.73
2017-12-17T19:46:40.765Z,14.85
2017-12-17T19:49:10.147Z,14.85
2017-12-17T19:51:38.916Z,14.00
2017-12-17T19:54:07.782Z,14.50
2017-12-17T19:56:36.482Z,14.80
2017-12-17T19:59:05.996Z,13.35
2017-12-17T20:01:35.474Z,13.55
2017-12-17T20:04:04.220Z,10.85
2017-12-17T20:06:32.964Z,8.77
2017-12-17T20:09:01.675Z,11.43
2017-12-17T20:11:31.167Z,11.05
2017-12-17T20:14:00.647Z,11.20
2017-12-17T20:16:29.389Z,10.13
2017-12-17T20:18:57.949Z,10.38
2017-12-17T20:21:27.393Z,11.20
2017-12-17T20:23:55.944Z,11.40
2017-12-17T20:26:24.501Z,9.77
2017-12-17T20:28:53.034Z,7.80
2017-12-17T20:31:21.586Z,9.02
2017-12-17T20:33:50.913Z,9.07
2017-12-17T20:36:19.434Z,8.20
2017-12-17T20:38:48.152Z,8.30
2017-12-17T20:41:16.867Z,7.95
2017-12-17T20:43:45.580Z,8.02
2017-12-17T20:46:14.517Z,8.18
2017-12-17T20:48:43.300Z,11.35
2017-12-17T20:51:12.090Z,11.15
2017-12-17T20:53:40.896Z,9.35
2017-12-17T20:56:09.624Z,12.15
2017-12-17T20:58:38.403Z,11.10
2017-12-17T21:01:07.189Z,9.70
2017-12-17T21:03:35.963Z,11.43
2017-12-17T21:06:05.507Z,11.63
2017-12-17T21:08:34.291Z,10.10
2017-12-17T21:11:03.247Z,11.55
2017-12-17T21:13:32.948Z,10.50
2017-12-17T21:16:02.218Z,9.52
2017-12-17T21:18:31.188Z,10.60
2017-12-17T21:20:59.921Z,8.73
2017-12-17T21:23:28.688Z,10.13
2017-12-17T21:25:57.438Z,9.25
2017-12-17T21:28:26.221Z,7.75
2017-12-17T21:30:54.996Z,10.57
2017-12-17T21:33:23.776Z,12.00
2017-12-17T21:35:52.961Z,11.30
2017-12-17T21:38:21.953Z,7.25
2017-12-17T21:40:50.691Z,8.15
2017-12-17T21:43:19.622Z,7.50
2017-12-17T21:45:48.392Z,6.82
2017-12-17T21:48:17.164Z,7.30
2017-12-17T21:50:46.743Z,7.15
2017-12-17T21:53:15.148Z,7.30
2017-12-17T21:55:44.002Z,6.97
2017-12-17T21:58:12.726Z,6.95
2017-12-17T22:00:41.686Z,9.70
2017-12-17T22:03:11.245Z,10.73
2017-12-17T22:05:40.242Z,19.55
2017-12-17T22:08:09.237Z,20.75
2017-12-17T22:10:38.220Z,20.50
2017-12-17T22:13:07.041Z,18.87
2017-12-17T22:15:36.057Z,24.85
2017-12-17T22:18:04.549Z,22.92
2017-12-17T22:20:33.313Z,24.70
2017-12-17T22:23:02.083Z,23.20
2017-12-17T22:25:30.809Z,20.10
2017-12-17T22:27:59.586Z,21.42
2017-12-17T22:30:28.372Z,22.60
2017-12-17T22:32:57.412Z,20.20
2017-12-17T22:35:27.394Z,18.20
2017-12-17T22:37:56.139Z,19.87
2017-12-17T22:40:25.641Z,26.45
2017-12-17T22:42:54.738Z,18.50
2017-12-17T22:45:23.564Z,24.60
2017-12-17T22:47:52.324Z,17.87
2017-12-17T22:50:21.153Z,18.35
2017-12-17T22:52:50.016Z,23.08
2017-12-17T22:55:18.979Z,18.95
2017-12-17T22:57:47.773Z,15.00
2017-12-17T23:00:16.551Z,15.32
2017-12-17T23:02:46.642Z,13.68
2017-12-17T23:05:15.745Z,15.02
2017-12-17T23:07:45.054Z,15.00
2017-12-17T23:10:15.235Z,13.35
2017-12-17T23:12:43.688Z,15.20
2017-12-17T23:15:12.340Z,14.05
2017-12-17T23:17:41.067Z,16.05
2017-12-17T23:20:09.829Z,14.98
2017-12-17T23:22:38.654Z,16.77
2017-12-17T23:25:07.424Z,18.08
2017-12-17T23:27:36.167Z,13.18
2017-12-17T23:30:05.137Z,16.20
2017-12-17T23:32:33.864Z,17.80
2017-12-17T23:35:02.296Z,15.68
2017-12-17T23:37:31.126Z,13.05
2017-12-17T23:39:59.544Z,18.08
2017-12-17T23:42:28.329Z,19.30
2017-12-17T23:44:57.120Z,16.58
2017-12-17T23:47:25.916Z,17.77
2017-12-17T23:49:54.565Z,22.83
2017-12-17T23:52:24.929Z,22.30
2017-12-17T23:54:53.240Z,25.35
2017-12-17T23:57:22.762Z,21.20
2017-12-17T23:59:51.776Z,21.80
